sensor_id;sensor_type;location;lat;lon;timestamp;P1;durP1;ratioP1;P2;durP2;ratioP2
17604;SDS011;8921;50.964;6.800;2022-09-03T00:01:45;5.07;;;2.20;;
17604;SDS011;8921;50.964;6.800;2022-09-03T00:04:21;4.47;;;2.43;;
17604;SDS011;8921;50.964;6.800;2022-09-03T00:06:59;5.00;;;2.10;;
17604;SDS011;8921;50.964;6.800;2022-09-03T00:09:24;7.70;;;2.20;;
17604;SDS011;8921;50.964;6.800;2022-09-03T00:12:00;4.40;;;2.10;;
17604;SDS011;8921;50.964;6.800;2022-09-03T00:14:40;7.40;;;2.47;;
17604;SDS011;8921;50.964;6.800;2022-09-03T00:17:14;5.30;;;2.10;;
17604;SDS011;8921;50.964;6.800;2022-09-03T00:19:44;5.27;;;2.40;;
17604;SDS011;8921;50.964;6.800;2022-09-03T00:22:12;4.27;;;2.00;;
17604;SDS011;8921;50.964;6.800;2022-09-03T00:24:39;6.80;;;2.20;;
17604;SDS011;8921;50.964;6.800;2022-09-03T00:27:10;6.53;;;2.30;;
17604;SDS011;8921;50.964;6.800;2022-09-03T00:29:36;5.80;;;2.50;;
17604;SDS011;8921;50.964;6.800;2022-09-03T00:32:10;4.00;;;1.90;;
17604;SDS011;8921;50.964;6.800;2022-09-03T00:34:38;4.80;;;2.47;;
17604;SDS011;8921;50.964;6.800;2022-09-03T00:37:03;4.13;;;1.90;;
17604;SDS011;8921;50.964;6.800;2022-09-03T00:39:31;4.40;;;2.00;;
17604;SDS011;8921;50.964;6.800;2022-09-03T00:45:02;5.17;;;2.40;;
17604;SDS011;8921;50.964;6.800;2022-09-03T00:53:12;5.87;;;2.50;;
17604;SDS011;8921;50.964;6.800;2022-09-03T00:58:20;6.30;;;2.60;;
17604;SDS011;8921;50.964;6.800;2022-09-03T01:00:54;6.03;;;2.50;;
17604;SDS011;8921;50.964;6.800;2022-09-03T01:06:16;7.23;;;3.60;;
17604;SDS011;8921;50.964;6.800;2022-09-03T01:16:52;5.90;;;2.80;;
17604;SDS011;8921;50.964;6.800;2022-09-03T01:25:53;5.50;;;3.03;;
17604;SDS011;8921;50.964;6.800;2022-09-03T01:30:25;5.33;;;2.90;;
17604;SDS011;8921;50.964;6.800;2022-09-03T01:33:02;7.60;;;2.70;;
17604;SDS011;8921;50.964;6.800;2022-09-03T01:35:52;6.30;;;2.50;;
17604;SDS011;8921;50.964;6.800;2022-09-03T01:45:53;4.37;;;2.53;;
17604;SDS011;8921;50.964;6.800;2022-09-03T01:51:14;5.40;;;2.90;;
17604;SDS011;8921;50.964;6.800;2022-09-03T01:56:48;12.73;;;3.07;;
17604;SDS011;8921;50.964;6.800;2022-09-03T01:59:45;4.47;;;2.50;;
17604;SDS011;8921;50.964;6.800;2022-09-03T02:02:19;5.63;;;2.60;;
17604;SDS011;8921;50.964;6.800;2022-09-03T02:04:55;6.73;;;2.50;;
17604;SDS011;8921;50.964;6.800;2022-09-03T02:07:36;6.77;;;3.07;;
17604;SDS011;8921;50.964;6.800;2022-09-03T02:10:07;5.80;;;2.33;;
17604;SDS011;8921;50.964;6.800;2022-09-03T02:12:35;8.17;;;2.60;;
17604;SDS011;8921;50.964;6.800;2022-09-03T02:15:04;6.40;;;2.83;;
17604;SDS011;8921;50.964;6.800;2022-09-03T02:17:31;4.70;;;2.67;;
17604;SDS011;8921;50.964;6.800;2022-09-03T02:20:00;4.50;;;2.50;;
17604;SDS011;8921;50.964;6.800;2022-09-03T02:22:27;6.13;;;2.60;;
17604;SDS011;8921;50.964;6.800;2022-09-03T02:24:55;5.23;;;3.00;;
17604;SDS011;8921;50.964;6.800;2022-09-03T02:27:24;7.70;;;3.27;;
17604;SDS011;8921;50.964;6.800;2022-09-03T02:29:52;5.83;;;2.53;;
17604;SDS011;8921;50.964;6.800;2022-09-03T02:32:20;6.13;;;3.00;;
17604;SDS011;8921;50.964;6.800;2022-09-03T02:34:48;5.33;;;2.77;;
17604;SDS011;8921;50.964;6.800;2022-09-03T02:37:17;6.07;;;3.93;;
17604;SDS011;8921;50.964;6.800;2022-09-03T02:39:45;5.67;;;3.00;;
17604;SDS011;8921;50.964;6.800;2022-09-03T02:42:13;5.77;;;2.70;;
17604;SDS011;8921;50.964;6.800;2022-09-03T02:44:43;5.43;;;2.83;;
17604;SDS011;8921;50.964;6.800;2022-09-03T02:47:10;5.73;;;3.10;;
17604;SDS011;8921;50.964;6.800;2022-09-03T02:49:38;5.10;;;2.67;;
17604;SDS011;8921;50.964;6.800;2022-09-03T02:52:08;4.30;;;2.20;;
17604;SDS011;8921;50.964;6.800;2022-09-03T02:54:35;4.70;;;2.73;;
17604;SDS011;8921;50.964;6.800;2022-09-03T02:57:03;5.23;;;2.57;;
17604;SDS011;8921;50.964;6.800;2022-09-03T02:59:31;6.00;;;3.03;;
17604;SDS011;8921;50.964;6.800;2022-09-03T03:01:59;8.80;;;3.30;;
17604;SDS011;8921;50.964;6.800;2022-09-03T03:04:30;6.30;;;3.27;;
17604;SDS011;8921;50.964;6.800;2022-09-03T03:06:58;11.60;;;2.77;;
17604;SDS011;8921;50.964;6.800;2022-09-03T03:09:27;6.17;;;2.87;;
17604;SDS011;8921;50.964;6.800;2022-09-03T03:11:55;4.33;;;2.40;;
17604;SDS011;8921;50.964;6.800;2022-09-03T03:14:23;10.50;;;2.87;;
17604;SDS011;8921;50.964;6.800;2022-09-03T03:16:51;6.90;;;3.03;;
17604;SDS011;8921;50.964;6.800;2022-09-03T03:19:20;5.37;;;2.40;;
17604;SDS011;8921;50.964;6.800;2022-09-03T03:21:48;5.20;;;2.63;;
17604;SDS011;8921;50.964;6.800;2022-09-03T03:24:16;5.00;;;2.50;;
17604;SDS011;8921;50.964;6.800;2022-09-03T03:26:45;4.70;;;2.50;;
17604;SDS011;8921;50.964;6.800;2022-09-03T03:29:14;6.20;;;2.90;;
17604;SDS011;8921;50.964;6.800;2022-09-03T03:31:41;4.40;;;2.57;;
17604;SDS011;8921;50.964;6.800;2022-09-03T03:34:09;6.20;;;2.60;;
17604;SDS011;8921;50.964;6.800;2022-09-03T03:36:38;9.13;;;2.80;;
17604;SDS011;8921;50.964;6.800;2022-09-03T03:39:06;4.53;;;2.40;;
17604;SDS011;8921;50.964;6.800;2022-09-03T03:41:35;6.10;;;2.67;;
17604;SDS011;8921;50.964;6.800;2022-09-03T03:44:04;7.80;;;2.40;;
17604;SDS011;8921;50.964;6.800;2022-09-03T03:46:35;5.13;;;2.60;;
17604;SDS011;8921;50.964;6.800;2022-09-03T03:49:03;3.93;;;2.20;;
17604;SDS011;8921;50.964;6.800;2022-09-03T03:51:31;4.23;;;2.37;;
17604;SDS011;8921;50.964;6.800;2022-09-03T03:53:59;4.37;;;2.30;;
17604;SDS011;8921;50.964;6.800;2022-09-03T03:56:27;5.10;;;2.37;;
17604;SDS011;8921;50.964;6.800;2022-09-03T03:58:57;6.43;;;2.40;;
17604;SDS011;8921;50.964;6.800;2022-09-03T04:01:24;5.50;;;2.67;;
17604;SDS011;8921;50.964;6.800;2022-09-03T04:03:55;4.53;;;2.20;;
17604;SDS011;8921;50.964;6.800;2022-09-03T04:06:23;4.23;;;2.60;;
17604;SDS011;8921;50.964;6.800;2022-09-03T04:08:52;4.23;;;2.20;;
17604;SDS011;8921;50.964;6.800;2022-09-03T04:11:21;9.23;;;2.43;;
17604;SDS011;8921;50.964;6.800;2022-09-03T04:13:48;3.97;;;2.00;;
17604;SDS011;8921;50.964;6.800;2022-09-03T04:16:18;5.07;;;2.60;;
17604;SDS011;8921;50.964;6.800;2022-09-03T04:18:45;5.60;;;1.87;;
17604;SDS011;8921;50.964;6.800;2022-09-03T04:21:17;3.87;;;1.80;;
17604;SDS011;8921;50.964;6.800;2022-09-03T04:23:45;7.40;;;2.80;;
17604;SDS011;8921;50.964;6.800;2022-09-03T04:26:14;4.17;;;2.27;;
17604;SDS011;8921;50.964;6.800;2022-09-03T04:28:41;4.30;;;2.13;;
17604;SDS011;8921;50.964;6.800;2022-09-03T04:31:09;7.20;;;1.70;;
17604;SDS011;8921;50.964;6.800;2022-09-03T04:33:37;4.53;;;2.10;;
17604;SDS011;8921;50.964;6.800;2022-09-03T04:38:40;4.80;;;2.00;;
17604;SDS011;8921;50.964;6.800;2022-09-03T04:41:11;5.13;;;2.43;;
17604;SDS011;8921;50.964;6.800;2022-09-03T04:43:37;4.20;;;2.00;;
17604;SDS011;8921;50.964;6.800;2022-09-03T04:46:05;3.80;;;1.90;;
17604;SDS011;8921;50.964;6.800;2022-09-03T04:48:33;4.40;;;2.10;;
17604;SDS011;8921;50.964;6.800;2022-09-03T04:51:11;3.60;;;1.73;;
17604;SDS011;8921;50.964;6.800;2022-09-03T04:53:41;4.50;;;2.17;;
17604;SDS011;8921;50.964;6.800;2022-09-03T04:56:19;4.10;;;2.03;;
17604;SDS011;8921;50.964;6.800;2022-09-03T04:58:47;3.53;;;1.70;;
17604;SDS011;8921;50.964;6.800;2022-09-03T05:01:16;4.27;;;1.80;;
17604;SDS011;8921;50.964;6.800;2022-09-03T05:03:44;4.30;;;1.90;;
17604;SDS011;8921;50.964;6.800;2022-09-03T05:06:12;4.07;;;1.90;;
17604;SDS011;8921;50.964;6.800;2022-09-03T05:08:40;4.70;;;2.20;;
17604;SDS011;8921;50.964;6.800;2022-09-03T05:11:08;3.90;;;2.00;;
17604;SDS011;8921;50.964;6.800;2022-09-03T05:13:36;3.47;;;1.70;;
17604;SDS011;8921;50.964;6.800;2022-09-03T05:16:06;3.50;;;1.70;;
17604;SDS011;8921;50.964;6.800;2022-09-03T05:18:33;4.23;;;1.93;;
17604;SDS011;8921;50.964;6.800;2022-09-03T05:21:11;3.70;;;1.83;;
17604;SDS011;8921;50.964;6.800;2022-09-03T05:23:36;3.50;;;1.70;;
17604;SDS011;8921;50.964;6.800;2022-09-03T05:26:04;4.60;;;2.00;;
17604;SDS011;8921;50.964;6.800;2022-09-03T05:28:32;5.20;;;2.00;;
17604;SDS011;8921;50.964;6.800;2022-09-03T05:31:04;9.07;;;2.30;;
17604;SDS011;8921;50.964;6.800;2022-09-03T05:33:34;4.10;;;1.80;;
17604;SDS011;8921;50.964;6.800;2022-09-03T05:36:03;4.57;;;2.20;;
17604;SDS011;8921;50.964;6.800;2022-09-03T05:38:30;3.80;;;1.83;;
17604;SDS011;8921;50.964;6.800;2022-09-03T05:40:59;4.90;;;2.20;;
17604;SDS011;8921;50.964;6.800;2022-09-03T05:43:29;4.60;;;1.90;;
17604;SDS011;8921;50.964;6.800;2022-09-03T05:45:58;8.27;;;1.97;;
17604;SDS011;8921;50.964;6.800;2022-09-03T05:48:26;6.07;;;1.97;;
17604;SDS011;8921;50.964;6.800;2022-09-03T05:50:58;3.90;;;1.83;;
17604;SDS011;8921;50.964;6.800;2022-09-03T05:53:28;5.93;;;2.00;;
17604;SDS011;8921;50.964;6.800;2022-09-03T05:55:58;5.07;;;1.70;;
17604;SDS011;8921;50.964;6.800;2022-09-03T05:58:34;7.90;;;2.20;;
17604;SDS011;8921;50.964;6.800;2022-09-03T06:01:09;3.73;;;1.60;;
17604;SDS011;8921;50.964;6.800;2022-09-03T06:03:36;3.67;;;1.70;;
17604;SDS011;8921;50.964;6.800;2022-09-03T06:06:05;6.57;;;1.93;;
17604;SDS011;8921;50.964;6.800;2022-09-03T06:08:33;7.33;;;1.90;;
17604;SDS011;8921;50.964;6.800;2022-09-03T06:11:01;5.13;;;1.90;;
17604;SDS011;8921;50.964;6.800;2022-09-03T06:13:30;3.77;;;1.60;;
17604;SDS011;8921;50.964;6.800;2022-09-03T06:15:58;6.37;;;2.33;;
17604;SDS011;8921;50.964;6.800;2022-09-03T06:21:01;4.53;;;1.80;;
17604;SDS011;8921;50.964;6.800;2022-09-03T06:23:29;3.90;;;1.60;;
17604;SDS011;8921;50.964;6.800;2022-09-03T06:28:27;3.80;;;1.57;;
17604;SDS011;8921;50.964;6.800;2022-09-03T06:30:59;4.80;;;2.17;;
17604;SDS011;8921;50.964;6.800;2022-09-03T06:33:30;4.93;;;2.00;;
17604;SDS011;8921;50.964;6.800;2022-09-03T06:35:58;4.73;;;2.10;;
17604;SDS011;8921;50.964;6.800;2022-09-03T06:38:26;4.60;;;1.73;;
17604;SDS011;8921;50.964;6.800;2022-09-03T06:40:55;5.60;;;2.57;;
17604;SDS011;8921;50.964;6.800;2022-09-03T06:43:23;6.70;;;2.60;;
17604;SDS011;8921;50.964;6.800;2022-09-03T06:45:57;4.23;;;2.00;;
17604;SDS011;8921;50.964;6.800;2022-09-03T06:48:25;5.07;;;2.40;;
17604;SDS011;8921;50.964;6.800;2022-09-03T06:50:54;4.20;;;1.80;;
17604;SDS011;8921;50.964;6.800;2022-09-03T06:53:25;6.23;;;2.27;;
17604;SDS011;8921;50.964;6.800;2022-09-03T06:55:53;7.10;;;2.90;;
17604;SDS011;8921;50.964;6.800;2022-09-03T06:58:27;4.90;;;2.47;;
17604;SDS011;8921;50.964;6.800;2022-09-03T07:00:52;4.73;;;2.23;;
17604;SDS011;8921;50.964;6.800;2022-09-03T07:03:21;3.63;;;1.87;;
17604;SDS011;8921;50.964;6.800;2022-09-03T07:05:49;3.80;;;1.70;;
17604;SDS011;8921;50.964;6.800;2022-09-03T07:08:17;9.07;;;2.40;;
17604;SDS011;8921;50.964;6.800;2022-09-03T07:10:45;3.97;;;1.87;;
17604;SDS011;8921;50.964;6.800;2022-09-03T07:13:14;5.93;;;1.93;;
17604;SDS011;8921;50.964;6.800;2022-09-03T07:15:42;5.03;;;1.93;;
17604;SDS011;8921;50.964;6.800;2022-09-03T07:18:10;5.07;;;1.70;;
17604;SDS011;8921;50.964;6.800;2022-09-03T07:20:39;7.27;;;1.97;;
17604;SDS011;8921;50.964;6.800;2022-09-03T07:23:07;3.77;;;1.80;;
17604;SDS011;8921;50.964;6.800;2022-09-03T07:25:35;4.53;;;1.77;;
17604;SDS011;8921;50.964;6.800;2022-09-03T07:28:04;3.80;;;1.87;;
17604;SDS011;8921;50.964;6.800;2022-09-03T07:30:32;4.00;;;1.63;;
17604;SDS011;8921;50.964;6.800;2022-09-03T07:33:00;3.50;;;1.70;;
17604;SDS011;8921;50.964;6.800;2022-09-03T07:35:29;3.10;;;1.20;;
17604;SDS011;8921;50.964;6.800;2022-09-03T07:37:57;7.80;;;1.60;;
17604;SDS011;8921;50.964;6.800;2022-09-03T07:40:25;6.93;;;2.17;;
17604;SDS011;8921;50.964;6.800;2022-09-03T07:42:56;5.50;;;1.77;;
17604;SDS011;8921;50.964;6.800;2022-09-03T07:45:25;4.60;;;2.00;;
17604;SDS011;8921;50.964;6.800;2022-09-03T07:47:53;3.90;;;1.80;;
17604;SDS011;8921;50.964;6.800;2022-09-03T07:50:21;3.70;;;1.60;;
17604;SDS011;8921;50.964;6.800;2022-09-03T07:52:58;4.17;;;1.83;;
17604;SDS011;8921;50.964;6.800;2022-09-03T07:55:24;3.97;;;1.70;;
17604;SDS011;8921;50.964;6.800;2022-09-03T07:57:55;4.57;;;1.90;;
17604;SDS011;8921;50.964;6.800;2022-09-03T08:00:24;4.03;;;1.80;;
17604;SDS011;8921;50.964;6.800;2022-09-03T08:02:52;6.73;;;2.43;;
17604;SDS011;8921;50.964;6.800;2022-09-03T08:05:20;5.40;;;2.17;;
17604;SDS011;8921;50.964;6.800;2022-09-03T08:07:48;3.77;;;1.60;;
17604;SDS011;8921;50.964;6.800;2022-09-03T08:10:17;3.47;;;1.53;;
17604;SDS011;8921;50.964;6.800;2022-09-03T08:12:45;4.50;;;1.83;;
17604;SDS011;8921;50.964;6.800;2022-09-03T08:15:13;6.00;;;2.03;;
17604;SDS011;8921;50.964;6.800;2022-09-03T08:17:42;8.80;;;1.93;;
17604;SDS011;8921;50.964;6.800;2022-09-03T08:20:10;5.20;;;1.83;;
17604;SDS011;8921;50.964;6.800;2022-09-03T08:22:38;5.63;;;1.57;;
17604;SDS011;8921;50.964;6.800;2022-09-03T08:25:07;6.37;;;2.30;;
17604;SDS011;8921;50.964;6.800;2022-09-03T08:27:35;4.10;;;1.53;;
17604;SDS011;8921;50.964;6.800;2022-09-03T08:30:03;4.10;;;1.70;;
17604;SDS011;8921;50.964;6.800;2022-09-03T08:32:33;9.53;;;2.20;;
17604;SDS011;8921;50.964;6.800;2022-09-03T08:35:00;7.00;;;1.50;;
17604;SDS011;8921;50.964;6.800;2022-09-03T08:37:28;4.03;;;1.70;;
17604;SDS011;8921;50.964;6.800;2022-09-03T08:39:57;8.50;;;2.07;;
17604;SDS011;8921;50.964;6.800;2022-09-03T08:42:46;4.50;;;1.83;;
17604;SDS011;8921;50.964;6.800;2022-09-03T08:45:18;6.20;;;2.00;;
17604;SDS011;8921;50.964;6.800;2022-09-03T08:47:51;3.93;;;1.80;;
17604;SDS011;8921;50.964;6.800;2022-09-03T08:50:27;3.67;;;1.87;;
17604;SDS011;8921;50.964;6.800;2022-09-03T08:55:54;6.70;;;2.17;;
17604;SDS011;8921;50.964;6.800;2022-09-03T08:58:28;3.67;;;1.70;;
17604;SDS011;8921;50.964;6.800;2022-09-03T09:04:21;5.80;;;2.10;;
17604;SDS011;8921;50.964;6.800;2022-09-03T09:22:26;5.87;;;2.80;;
17604;SDS011;8921;50.964;6.800;2022-09-03T09:24:54;4.90;;;2.20;;
17604;SDS011;8921;50.964;6.800;2022-09-03T09:27:22;4.27;;;1.90;;
17604;SDS011;8921;50.964;6.800;2022-09-03T09:29:50;4.60;;;1.60;;
17604;SDS011;8921;50.964;6.800;2022-09-03T09:32:18;3.50;;;1.67;;
17604;SDS011;8921;50.964;6.800;2022-09-03T09:34:47;4.57;;;2.23;;
17604;SDS011;8921;50.964;6.800;2022-09-03T09:37:15;7.60;;;2.33;;
17604;SDS011;8921;50.964;6.800;2022-09-03T09:39:53;4.30;;;1.90;;
17604;SDS011;8921;50.964;6.800;2022-09-03T09:42:21;4.57;;;1.90;;
17604;SDS011;8921;50.964;6.800;2022-09-03T09:44:49;3.60;;;1.87;;
17604;SDS011;8921;50.964;6.800;2022-09-03T09:47:29;4.33;;;1.87;;
17604;SDS011;8921;50.964;6.800;2022-09-03T09:49:58;4.67;;;1.90;;
17604;SDS011;8921;50.964;6.800;2022-09-03T09:52:26;5.57;;;2.33;;
17604;SDS011;8921;50.964;6.800;2022-09-03T09:55:07;9.07;;;2.37;;
17604;SDS011;8921;50.964;6.800;2022-09-03T09:57:34;5.47;;;2.63;;
17604;SDS011;8921;50.964;6.800;2022-09-03T10:00:06;5.00;;;2.20;;
17604;SDS011;8921;50.964;6.800;2022-09-03T10:02:37;4.37;;;1.70;;
17604;SDS011;8921;50.964;6.800;2022-09-03T10:05:14;4.53;;;1.47;;
17604;SDS011;8921;50.964;6.800;2022-09-03T10:07:39;5.00;;;1.60;;
17604;SDS011;8921;50.964;6.800;2022-09-03T10:10:17;5.13;;;2.10;;
17604;SDS011;8921;50.964;6.800;2022-09-03T10:12:49;9.20;;;2.80;;
17604;SDS011;8921;50.964;6.800;2022-09-03T10:18:07;4.30;;;1.87;;
17604;SDS011;8921;50.964;6.800;2022-09-03T10:23:24;4.60;;;2.23;;
17604;SDS011;8921;50.964;6.800;2022-09-03T10:28:36;4.10;;;2.20;;
17604;SDS011;8921;50.964;6.800;2022-09-03T10:33:59;6.23;;;2.50;;
17604;SDS011;8921;50.964;6.800;2022-09-03T10:36:47;4.63;;;1.90;;
17604;SDS011;8921;50.964;6.800;2022-09-03T10:41:57;5.90;;;2.70;;
17604;SDS011;8921;50.964;6.800;2022-09-03T11:01:02;5.90;;;2.23;;
17604;SDS011;8921;50.964;6.800;2022-09-03T11:03:47;4.57;;;2.03;;
17604;SDS011;8921;50.964;6.800;2022-09-03T11:11:22;6.60;;;2.37;;
17604;SDS011;8921;50.964;6.800;2022-09-03T11:13:50;3.90;;;1.90;;
17604;SDS011;8921;50.964;6.800;2022-09-03T11:16:19;4.60;;;2.30;;
17604;SDS011;8921;50.964;6.800;2022-09-03T11:18:47;7.47;;;2.53;;
17604;SDS011;8921;50.964;6.800;2022-09-03T11:21:15;5.40;;;2.67;;
17604;SDS011;8921;50.964;6.800;2022-09-03T11:23:43;4.57;;;2.10;;
17604;SDS011;8921;50.964;6.800;2022-09-03T11:26:11;6.70;;;2.30;;
17604;SDS011;8921;50.964;6.800;2022-09-03T11:28:51;8.10;;;3.10;;
17604;SDS011;8921;50.964;6.800;2022-09-03T11:31:30;4.37;;;2.17;;
17604;SDS011;8921;50.964;6.800;2022-09-03T11:33:55;6.00;;;2.57;;
17604;SDS011;8921;50.964;6.800;2022-09-03T11:36:23;5.10;;;3.20;;
17604;SDS011;8921;50.964;6.800;2022-09-03T11:38:50;6.20;;;3.10;;
17604;SDS011;8921;50.964;6.800;2022-09-03T11:43:49;7.23;;;2.70;;
17604;SDS011;8921;50.964;6.800;2022-09-03T11:48:49;5.87;;;2.90;;
17604;SDS011;8921;50.964;6.800;2022-09-03T11:51:18;8.90;;;3.90;;
17604;SDS011;8921;50.964;6.800;2022-09-03T11:53:55;5.00;;;3.10;;
17604;SDS011;8921;50.964;6.800;2022-09-03T11:56:29;6.67;;;2.70;;
17604;SDS011;8921;50.964;6.800;2022-09-03T11:59:00;5.60;;;3.10;;
17604;SDS011;8921;50.964;6.800;2022-09-03T12:01:25;9.63;;;2.63;;
17604;SDS011;8921;50.964;6.800;2022-09-03T12:04:00;4.73;;;2.60;;
17604;SDS011;8921;50.964;6.800;2022-09-03T12:17:49;7.77;;;3.07;;
17604;SDS011;8921;50.964;6.800;2022-09-03T12:20:39;6.93;;;2.57;;
17604;SDS011;8921;50.964;6.800;2022-09-03T12:23:10;10.90;;;2.67;;
17604;SDS011;8921;50.964;6.800;2022-09-03T12:25:42;5.33;;;2.80;;
17604;SDS011;8921;50.964;6.800;2022-09-03T12:28:15;4.50;;;2.60;;
17604;SDS011;8921;50.964;6.800;2022-09-03T12:30:41;6.40;;;3.00;;
17604;SDS011;8921;50.964;6.800;2022-09-03T12:33:12;8.77;;;2.80;;
17604;SDS011;8921;50.964;6.800;2022-09-03T12:35:37;6.13;;;2.43;;
17604;SDS011;8921;50.964;6.800;2022-09-03T12:38:06;6.33;;;2.70;;
17604;SDS011;8921;50.964;6.800;2022-09-03T12:40:34;5.93;;;2.53;;
17604;SDS011;8921;50.964;6.800;2022-09-03T12:43:12;5.30;;;3.17;;
17604;SDS011;8921;50.964;6.800;2022-09-03T12:45:48;5.23;;;2.97;;
17604;SDS011;8921;50.964;6.800;2022-09-03T12:48:14;5.60;;;3.07;;
17604;SDS011;8921;50.964;6.800;2022-09-03T12:50:42;6.80;;;3.13;;
17604;SDS011;8921;50.964;6.800;2022-09-03T12:53:11;6.47;;;2.87;;
17604;SDS011;8921;50.964;6.800;2022-09-03T12:55:42;5.10;;;3.10;;
17604;SDS011;8921;50.964;6.800;2022-09-03T12:58:14;5.30;;;3.03;;
17604;SDS011;8921;50.964;6.800;2022-09-03T13:00:42;5.50;;;3.10;;
17604;SDS011;8921;50.964;6.800;2022-09-03T13:03:11;5.77;;;2.80;;
17604;SDS011;8921;50.964;6.800;2022-09-03T13:05:47;5.37;;;2.97;;
17604;SDS011;8921;50.964;6.800;2022-09-03T13:08:17;6.37;;;2.90;;
17604;SDS011;8921;50.964;6.800;2022-09-03T13:10:48;7.60;;;3.20;;
17604;SDS011;8921;50.964;6.800;2022-09-03T13:13:23;5.80;;;2.57;;
17604;SDS011;8921;50.964;6.800;2022-09-03T13:16:04;7.27;;;3.53;;
17604;SDS011;8921;50.964;6.800;2022-09-03T13:23:58;4.40;;;2.80;;
17604;SDS011;8921;50.964;6.800;2022-09-03T13:35:50;4.90;;;2.40;;
17604;SDS011;8921;50.964;6.800;2022-09-03T13:38:06;4.73;;;2.60;;
17604;SDS011;8921;50.964;6.800;2022-09-03T13:43:42;5.00;;;2.70;;
17604;SDS011;8921;50.964;6.800;2022-09-03T13:48:55;4.50;;;2.63;;
17604;SDS011;8921;50.964;6.800;2022-09-03T13:51:45;5.03;;;2.20;;
17604;SDS011;8921;50.964;6.800;2022-09-03T13:56:59;5.40;;;3.17;;
17604;SDS011;8921;50.964;6.800;2022-09-03T14:02:21;5.23;;;3.10;;
17604;SDS011;8921;50.964;6.800;2022-09-03T14:13:02;6.13;;;2.87;;
17604;SDS011;8921;50.964;6.800;2022-09-03T14:15:44;5.30;;;3.00;;
17604;SDS011;8921;50.964;6.800;2022-09-03T14:18:27;9.87;;;3.53;;
17604;SDS011;8921;50.964;6.800;2022-09-03T14:20:55;5.90;;;2.93;;
17604;SDS011;8921;50.964;6.800;2022-09-03T14:23:27;4.80;;;3.10;;
17604;SDS011;8921;50.964;6.800;2022-09-03T14:25:56;6.17;;;3.53;;
17604;SDS011;8921;50.964;6.800;2022-09-03T14:28:30;4.80;;;2.77;;
17604;SDS011;8921;50.964;6.800;2022-09-03T14:38:52;4.50;;;2.60;;
17604;SDS011;8921;50.964;6.800;2022-09-03T14:41:21;6.00;;;3.20;;
17604;SDS011;8921;50.964;6.800;2022-09-03T14:46:44;5.40;;;3.03;;
17604;SDS011;8921;50.964;6.800;2022-09-03T14:52:13;5.40;;;3.30;;
17604;SDS011;8921;50.964;6.800;2022-09-03T14:55:00;5.97;;;3.23;;
17604;SDS011;8921;50.964;6.800;2022-09-03T14:57:50;5.60;;;3.20;;
17604;SDS011;8921;50.964;6.800;2022-09-03T15:00:16;4.50;;;2.70;;
17604;SDS011;8921;50.964;6.800;2022-09-03T15:03:07;5.57;;;2.83;;
17604;SDS011;8921;50.964;6.800;2022-09-03T15:11:17;6.20;;;3.10;;
17604;SDS011;8921;50.964;6.800;2022-09-03T15:13:51;4.60;;;3.13;;
17604;SDS011;8921;50.964;6.800;2022-09-03T15:19:10;6.83;;;3.53;;
17604;SDS011;8921;50.964;6.800;2022-09-03T15:30:12;6.57;;;3.30;;
17604;SDS011;8921;50.964;6.800;2022-09-03T15:32:51;6.10;;;3.07;;
17604;SDS011;8921;50.964;6.800;2022-09-03T15:38:07;5.17;;;3.60;;
17604;SDS011;8921;50.964;6.800;2022-09-03T15:40:36;7.00;;;3.60;;
17604;SDS011;8921;50.964;6.800;2022-09-03T15:43:18;6.53;;;2.80;;
17604;SDS011;8921;50.964;6.800;2022-09-03T15:51:03;5.53;;;2.63;;
17604;SDS011;8921;50.964;6.800;2022-09-03T15:56:14;4.57;;;2.77;;
17604;SDS011;8921;50.964;6.800;2022-09-03T15:58:50;5.10;;;2.30;;
17604;SDS011;8921;50.964;6.800;2022-09-03T16:01:38;4.50;;;2.73;;
17604;SDS011;8921;50.964;6.800;2022-09-03T16:07:02;5.83;;;2.97;;
17604;SDS011;8921;50.964;6.800;2022-09-03T16:12:32;5.90;;;2.70;;
17604;SDS011;8921;50.964;6.800;2022-09-03T16:17:35;5.43;;;2.57;;
17604;SDS011;8921;50.964;6.800;2022-09-03T16:20:14;7.97;;;2.90;;
17604;SDS011;8921;50.964;6.800;2022-09-03T16:22:39;5.00;;;2.20;;
17604;SDS011;8921;50.964;6.800;2022-09-03T16:25:06;4.53;;;2.70;;
17604;SDS011;8921;50.964;6.800;2022-09-03T16:30:57;6.90;;;3.00;;
17604;SDS011;8921;50.964;6.800;2022-09-03T16:36:06;4.70;;;2.53;;
17604;SDS011;8921;50.964;6.800;2022-09-03T16:38:52;5.13;;;2.57;;
17604;SDS011;8921;50.964;6.800;2022-09-03T16:47:04;6.80;;;3.53;;
17604;SDS011;8921;50.964;6.800;2022-09-03T16:58:12;7.10;;;4.50;;
17604;SDS011;8921;50.964;6.800;2022-09-03T17:00:39;8.13;;;4.33;;
17604;SDS011;8921;50.964;6.800;2022-09-03T17:11:46;4.97;;;2.40;;
17604;SDS011;8921;50.964;6.800;2022-09-03T17:17:05;6.40;;;4.00;;
17604;SDS011;8921;50.964;6.800;2022-09-03T17:19:38;8.93;;;3.60;;
17604;SDS011;8921;50.964;6.800;2022-09-03T17:24:40;5.67;;;3.13;;
17604;SDS011;8921;50.964;6.800;2022-09-03T17:35:05;5.20;;;2.63;;
17604;SDS011;8921;50.964;6.800;2022-09-03T17:46:19;5.83;;;2.87;;
17604;SDS011;8921;50.964;6.800;2022-09-03T17:48:50;3.90;;;2.27;;
17604;SDS011;8921;50.964;6.800;2022-09-03T17:56:45;4.97;;;2.57;;
17604;SDS011;8921;50.964;6.800;2022-09-03T17:59:29;4.70;;;2.63;;
17604;SDS011;8921;50.964;6.800;2022-09-03T18:04:53;4.97;;;2.10;;
17604;SDS011;8921;50.964;6.800;2022-09-03T18:10:09;5.00;;;2.67;;
17604;SDS011;8921;50.964;6.800;2022-09-03T18:15:28;4.80;;;2.60;;
17604;SDS011;8921;50.964;6.800;2022-09-03T18:18:07;6.50;;;3.37;;
17604;SDS011;8921;50.964;6.800;2022-09-03T18:20:44;5.50;;;2.97;;
17604;SDS011;8921;50.964;6.800;2022-09-03T18:23:29;5.83;;;2.83;;
17604;SDS011;8921;50.964;6.800;2022-09-03T18:26:19;6.17;;;2.60;;
17604;SDS011;8921;50.964;6.800;2022-09-03T18:29:03;5.20;;;3.20;;
17604;SDS011;8921;50.964;6.800;2022-09-03T18:31:49;6.33;;;3.00;;
17604;SDS011;8921;50.964;6.800;2022-09-03T18:34:36;8.17;;;2.70;;
17604;SDS011;8921;50.964;6.800;2022-09-03T18:37:23;7.60;;;2.90;;
17604;SDS011;8921;50.964;6.800;2022-09-03T18:40:10;5.50;;;3.03;;
17604;SDS011;8921;50.964;6.800;2022-09-03T18:43:01;5.83;;;3.10;;
17604;SDS011;8921;50.964;6.800;2022-09-03T18:52:01;5.73;;;3.23;;
17604;SDS011;8921;50.964;6.800;2022-09-03T19:04:03;5.87;;;2.47;;
17604;SDS011;8921;50.964;6.800;2022-09-03T19:07:10;6.40;;;2.77;;
17604;SDS011;8921;50.964;6.800;2022-09-03T19:16:04;5.37;;;2.80;;
17604;SDS011;8921;50.964;6.800;2022-09-03T19:22:09;5.30;;;2.93;;
17604;SDS011;8921;50.964;6.800;2022-09-03T19:25:01;5.30;;;3.13;;
17604;SDS011;8921;50.964;6.800;2022-09-03T19:48:42;5.30;;;3.20;;
17604;SDS011;8921;50.964;6.800;2022-09-03T19:51:44;6.60;;;3.87;;
17604;SDS011;8921;50.964;6.800;2022-09-03T19:54:27;5.30;;;3.27;;
17604;SDS011;8921;50.964;6.800;2022-09-03T19:57:14;6.10;;;2.80;;
17604;SDS011;8921;50.964;6.800;2022-09-03T20:00:02;5.10;;;3.03;;
17604;SDS011;8921;50.964;6.800;2022-09-03T20:02:48;6.90;;;3.37;;
17604;SDS011;8921;50.964;6.800;2022-09-03T20:05:36;7.07;;;3.57;;
17604;SDS011;8921;50.964;6.800;2022-09-03T20:08:22;6.23;;;3.20;;
17604;SDS011;8921;50.964;6.800;2022-09-03T20:11:10;5.13;;;3.13;;
17604;SDS011;8921;50.964;6.800;2022-09-03T20:13:37;5.50;;;3.30;;
17604;SDS011;8921;50.964;6.800;2022-09-03T20:16:27;4.77;;;2.67;;
17604;SDS011;8921;50.964;6.800;2022-09-03T20:19:03;6.37;;;3.67;;
17604;SDS011;8921;50.964;6.800;2022-09-03T20:21:31;6.43;;;4.20;;
17604;SDS011;8921;50.964;6.800;2022-09-03T20:29:40;6.60;;;4.03;;
17604;SDS011;8921;50.964;6.800;2022-09-03T20:40:26;5.43;;;3.60;;
17604;SDS011;8921;50.964;6.800;2022-09-03T20:45:35;6.20;;;3.37;;
17604;SDS011;8921;50.964;6.800;2022-09-03T20:48:03;6.03;;;3.60;;
17604;SDS011;8921;50.964;6.800;2022-09-03T20:55:51;5.63;;;3.20;;
17604;SDS011;8921;50.964;6.800;2022-09-03T21:03:29;5.67;;;3.50;;
17604;SDS011;8921;50.964;6.800;2022-09-03T21:14:22;5.80;;;3.77;;
17604;SDS011;8921;50.964;6.800;2022-09-03T21:22:17;8.73;;;4.07;;
17604;SDS011;8921;50.964;6.800;2022-09-03T21:24:54;6.87;;;4.20;;
17604;SDS011;8921;50.964;6.800;2022-09-03T21:27:23;7.40;;;4.47;;
17604;SDS011;8921;50.964;6.800;2022-09-03T21:30:00;8.97;;;4.03;;